Time;durP1;ratioP1;P1;durP2;ratioP2;P2;SDS_P1;SDS_P2;PMS_P1;PMS_P2;Temp;Humidity;BMP_temperature;BMP_pressure;BME280_temperature;BME280_humidity;BME280_pressure;Samples;Min_cycle;Max_cycle;Signal;HPM_P1;HPM_P2
2023/09/17 00:03:58;;;;;;;8.00;6.00;;;24.40;60.30;;;;;;229563;1251;22275;-67
2023/09/17 00:09:03;;;;;;;6.40;5.50;;;24.50;60.20;;;;;;229476;1249;23161;-63
2023/09/17 00:14:07;;;;;;;8.30;5.70;;;24.40;60.00;;;;;;229353;1252;220900;-62
2023/09/17 00:19:10;;;;;;;6.40;5.80;;;24.40;60.10;;;;;;229578;1251;22286;-64
2023/09/17 00:24:12;;;;;;;6.60;6.00;;;24.40;60.00;;;;;;229572;1263;22349;-64
2023/09/17 00:29:15;;;;;;;6.30;5.80;;;24.40;60.10;;;;;;229568;1251;22355;-62
2023/09/17 00:34:18;;;;;;;7.00;5.80;;;24.40;60.10;;;;;;229528;1249;22293;-64
2023/09/17 00:39:20;;;;;;;6.90;5.50;;;24.40;60.00;;;;;;229532;1248;22375;-63
2023/09/17 00:44:23;;;;;;;6.40;5.80;;;24.40;59.90;;;;;;229539;1248;23157;-64
2023/09/17 00:49:26;;;;;;;6.80;6.20;;;24.40;60.30;;;;;;229589;1247;22320;-64
2023/09/17 00:54:30;;;;;;;6.20;5.40;;;24.40;59.70;;;;;;229546;1252;23353;-65
2023/09/17 00:59:33;;;;;;;6.20;5.60;;;24.40;59.60;;;;;;226582;1251;25145;-64
2023/09/17 01:04:38;;;;;;;6.80;6.10;;;24.40;59.70;;;;;;229474;1250;22279;-64
2023/09/17 01:09:43;;;;;;;6.40;5.80;;;24.30;59.70;;;;;;229470;1264;22290;-64
2023/09/17 01:14:47;;;;;;;6.00;5.50;;;24.30;59.60;;;;;;224557;1264;22559;-63
2023/09/17 01:19:52;;;;;;;6.80;5.70;;;24.30;59.70;;;;;;229551;1264;22970;-64
2023/09/17 01:25:31;;;;;;;6.60;6.00;;;24.30;59.90;;;;;;229538;1252;22346;-65
2023/09/17 01:30:34;;;;;;;6.30;5.40;;;24.30;59.90;;;;;;229432;1263;22259;-65
2023/09/17 01:35:52;;;;;;;6.90;6.20;;;24.30;59.70;;;;;;225264;1263;22600;-64
2023/09/17 01:40:56;;;;;;;6.60;6.00;;;24.30;60.00;;;;;;220933;1249;22612;-63
2023/09/17 01:46:00;;;;;;;10.90;5.90;;;24.10;60.00;;;;;;229492;1255;23416;-64
2023/09/17 01:51:04;;;;;;;7.20;5.90;;;24.10;60.10;;;;;;229535;1263;22254;-64
2023/09/17 01:56:06;;;;;;;6.20;5.60;;;24.20;59.90;;;;;;229515;1263;22260;-64
2023/09/17 02:01:09;;;;;;;6.90;6.30;;;24.30;59.60;;;;;;229512;1249;22287;-64
2023/09/17 02:06:12;;;;;;;6.30;5.80;;;24.20;59.60;;;;;;223783;1263;25348;-63
2023/09/17 02:11:15;;;;;;;8.40;6.10;;;24.20;59.60;;;;;;229482;1263;22921;-64
2023/09/17 02:16:20;;;;;;;6.70;6.10;;;24.10;59.80;;;;;;229433;1264;22317;-63
2023/09/17 02:21:23;;;;;;;6.60;6.00;;;24.20;59.80;;;;;;229450;1249;22257;-63
2023/09/17 02:26:26;;;;;;;6.50;5.40;;;24.20;59.50;;;;;;229465;1263;22627;-65
2023/09/17 02:31:29;;;;;;;6.00;5.40;;;24.20;59.70;;;;;;229477;1263;22294;-63
2023/09/17 02:36:34;;;;;;;7.20;6.00;;;24.20;59.40;;;;;;229569;1263;23200;-64
2023/09/17 02:41:36;;;;;;;6.00;5.50;;;24.20;59.40;;;;;;226273;1263;24100;-63
2023/09/17 02:46:40;;;;;;;7.20;6.00;;;24.20;59.30;;;;;;229429;1263;22273;-64
2023/09/17 02:51:43;;;;;;;6.30;5.70;;;24.20;59.80;;;;;;229677;1252;22355;-61
2023/09/17 02:56:45;;;;;;;9.00;6.30;;;24.20;59.40;;;;;;230021;1261;22640;-61
2023/09/17 03:01:48;;;;;;;6.90;6.30;;;24.20;59.40;;;;;;229994;1260;22403;-59
2023/09/17 03:06:51;;;;;;;6.50;5.90;;;24.10;59.30;;;;;;229535;1263;22741;-63
2023/09/17 03:11:57;;;;;;;7.10;6.50;;;24.10;59.50;;;;;;228467;1252;22692;-62
2023/09/17 03:17:01;;;;;;;7.40;6.50;;;24.10;59.30;;;;;;230017;1264;22330;-61
2023/09/17 03:22:04;;;;;;;7.20;5.90;;;24.10;59.70;;;;;;229685;1256;22604;-61
2023/09/17 03:27:10;;;;;;;8.50;6.40;;;24.10;59.50;;;;;;228412;1263;22751;-61
2023/09/17 03:32:13;;;;;;;6.40;5.80;;;24.10;59.20;;;;;;228459;1262;22537;-61
2023/09/17 03:37:16;;;;;;;6.20;5.70;;;24.10;59.30;;;;;;227840;1249;22542;-62
2023/09/17 03:42:20;;;;;;;6.90;6.20;;;24.10;59.30;;;;;;224667;1263;22524;-61
2023/09/17 03:47:23;;;;;;;7.30;6.60;;;24.00;59.40;;;;;;223031;1263;22475;-62
2023/09/17 03:52:27;;;;;;;6.60;5.90;;;24.00;59.80;;;;;;229510;1252;22287;-62
2023/09/17 03:57:30;;;;;;;6.50;5.90;;;23.90;59.90;;;;;;229558;1263;22273;-63
2023/09/17 04:02:39;;;;;;;6.80;6.20;;;24.00;59.90;;;;;;227204;1249;24186;-61
2023/09/17 04:07:44;;;;;;;6.80;6.00;;;24.00;59.60;;;;;;229609;1263;22267;-62
2023/09/17 04:12:47;;;;;;;7.30;6.50;;;24.00;59.60;;;;;;229545;1249;22338;-62
2023/09/17 04:17:50;;;;;;;6.50;5.80;;;24.00;59.60;;;;;;229534;1263;22394;-62
2023/09/17 04:22:53;;;;;;;6.00;5.50;;;24.00;59.40;;;;;;229542;1248;22255;-62
2023/09/17 04:27:56;;;;;;;6.90;6.00;;;24.00;59.60;;;;;;229486;1264;23218;-63
2023/09/17 04:33:01;;;;;;;6.40;5.70;;;24.00;59.60;;;;;;229582;1249;22958;-63
2023/09/17 04:38:04;;;;;;;6.40;5.80;;;24.00;59.90;;;;;;229428;1263;22938;-63
2023/09/17 04:43:07;;;;;;;6.20;5.60;;;24.00;59.80;;;;;;229540;1257;22286;-64
2023/09/17 04:48:11;;;;;;;7.50;5.90;;;24.00;59.60;;;;;;229509;1263;22336;-63
2023/09/17 04:53:14;;;;;;;6.50;6.00;;;24.00;60.00;;;;;;229539;1262;22997;-63
2023/09/17 04:58:18;;;;;;;6.50;5.80;;;23.90;59.50;;;;;;222942;1263;24317;-63
2023/09/17 05:03:23;;;;;;;7.70;6.00;;;23.90;59.90;;;;;;229492;1263;22262;-64
2023/09/17 05:08:26;;;;;;;5.80;5.30;;;23.90;60.10;;;;;;229614;1262;22265;-63
2023/09/17 05:13:29;;;;;;;6.80;6.20;;;23.90;60.00;;;;;;229486;1252;22248;-63
2023/09/17 05:18:32;;;;;;;6.30;5.70;;;24.00;59.90;;;;;;229480;1263;22252;-64
2023/09/17 05:23:35;;;;;;;6.90;6.20;;;24.00;60.00;;;;;;229515;1253;22272;-64
2023/09/17 05:28:38;;;;;;;6.40;5.70;;;23.90;60.20;;;;;;229496;1264;22466;-64
2023/09/17 05:33:42;;;;;;;5.70;5.30;;;24.10;59.80;;;;;;229433;1252;22276;-64
2023/09/17 05:38:45;;;;;;;6.50;5.80;;;24.00;59.80;;;;;;229457;1263;22354;-63
2023/09/17 05:43:47;;;;;;;7.00;6.20;;;24.00;60.00;;;;;;229521;1248;22308;-64
2023/09/17 05:48:50;;;;;;;6.20;5.70;;;24.10;60.20;;;;;;229625;1256;23142;-63
2023/09/17 05:53:53;;;;;;;6.70;6.10;;;23.90;60.00;;;;;;229540;1252;22264;-64
2023/09/17 05:58:56;;;;;;;7.10;6.20;;;23.80;60.40;;;;;;229495;1260;22805;-62
2023/09/17 06:03:59;;;;;;;6.00;5.60;;;23.80;60.60;;;;;;229516;1252;22242;-63
2023/09/17 06:09:02;;;;;;;6.70;6.00;;;23.70;60.90;;;;;;229528;1263;23095;-60
2023/09/17 06:14:04;;;;;;;6.60;6.00;;;23.80;60.60;;;;;;229477;1253;24094;-62
2023/09/17 06:19:08;;;;;;;6.50;5.60;;;23.90;60.30;;;;;;229617;1252;22405;-60
2023/09/17 06:24:10;;;;;;;7.10;5.70;;;23.90;60.50;;;;;;229553;1260;22275;-58
2023/09/17 06:29:13;;;;;;;5.90;5.40;;;23.90;60.70;;;;;;229544;1253;22456;-61
2023/09/17 06:34:16;;;;;;;6.90;6.20;;;24.00;60.70;;;;;;229513;1263;23537;-62
2023/09/17 06:39:19;;;;;;;6.20;5.60;;;24.10;60.90;;;;;;229535;1264;22358;-62
2023/09/17 06:44:23;;;;;;;8.00;5.90;;;24.10;60.80;;;;;;229576;1264;22254;-62
2023/09/17 06:49:26;;;;;;;6.20;5.60;;;24.10;61.10;;;;;;229524;1247;22291;-61
2023/09/17 06:54:28;;;;;;;6.70;6.00;;;24.20;61.30;;;;;;229612;1252;23162;-61
2023/09/17 06:59:31;;;;;;;11.50;5.90;;;24.20;61.60;;;;;;229566;1253;22250;-61
2023/09/17 07:04:34;;;;;;;7.30;5.70;;;24.20;61.60;;;;;;229527;1264;22721;-58
2023/09/17 07:09:36;;;;;;;12.70;5.90;;;24.30;61.80;;;;;;229604;1249;22328;-61
2023/09/17 07:14:39;;;;;;;11.80;5.60;;;24.30;62.30;;;;;;229599;1252;22245;-61
2023/09/17 07:19:42;;;;;;;8.30;5.90;;;24.30;61.10;;;;;;229556;1263;22419;-62
2023/09/17 07:24:45;;;;;;;5.70;4.50;;;24.30;61.90;;;;;;229520;1260;22219;-62
2023/09/17 07:29:48;;;;;;;6.30;5.20;;;24.20;62.80;;;;;;229612;1264;22949;-62
2023/09/17 07:34:51;;;;;;;6.00;4.90;;;24.50;63.10;;;;;;229611;1253;22479;-62
2023/09/17 07:39:56;;;;;;;9.50;5.40;;;24.70;62.10;;;;;;229572;1263;22262;-60
2023/09/17 07:44:59;;;;;;;9.50;5.60;;;24.50;63.10;;;;;;229546;1263;23320;-61
2023/09/17 07:50:02;;;;;;;10.00;5.40;;;24.50;65.20;;;;;;229551;1253;23510;-60
2023/09/17 07:55:05;;;;;;;5.50;4.90;;;24.70;63.90;;;;;;229536;1251;22347;-60
2023/09/17 08:00:09;;;;;;;6.10;5.50;;;24.80;63.30;;;;;;229570;1263;22360;-61
2023/09/17 08:05:15;;;;;;;6.00;4.70;;;24.70;64.40;;;;;;229612;1264;22245;-61
2023/09/17 08:10:17;;;;;;;5.50;4.90;;;24.70;64.30;;;;;;229649;1260;22252;-61
2023/09/17 08:15:20;;;;;;;12.60;5.10;;;24.90;63.60;;;;;;229624;1263;23082;-61
2023/09/17 08:20:23;;;;;;;5.40;4.90;;;24.90;63.70;;;;;;229606;1251;22378;-61
2023/09/17 08:25:26;;;;;;;6.10;4.70;;;25.00;62.90;;;;;;229376;1263;22273;-59
2023/09/17 08:30:31;;;;;;;5.50;4.90;;;25.20;62.60;;;;;;229593;1251;22277;-60
2023/09/17 08:35:34;;;;;;;5.40;4.80;;;25.40;62.50;;;;;;229618;1257;22271;-61
2023/09/17 08:40:39;;;;;;;6.90;4.10;;;25.30;62.40;;;;;;229625;1253;22336;-60
2023/09/17 08:45:41;;;;;;;5.60;4.70;;;25.20;62.70;;;;;;229613;1263;22352;-63
2023/09/17 08:50:50;;;;;;;9.90;4.60;;;25.20;62.70;;;;;;229645;1258;23063;-61
2023/09/17 08:55:56;;;;;;;4.70;4.30;;;25.40;62.40;;;;;;229539;1263;22990;-60
2023/09/17 09:01:03;;;;;;;6.80;4.00;;;25.10;62.20;;;;;;229592;1263;22321;-59
2023/09/17 09:06:09;;;;;;;12.30;3.70;;;25.10;62.00;;;;;;229520;1264;22239;-58
2023/09/17 09:11:12;;;;;;;6.00;3.20;;;25.20;61.10;;;;;;229596;1254;23029;-59
2023/09/17 09:16:15;;;;;;;5.20;3.80;;;25.20;60.70;;;;;;229563;1263;22544;-61
2023/09/17 09:21:18;;;;;;;4.80;3.70;;;25.20;60.70;;;;;;229634;1247;24120;-58
2023/09/17 09:26:21;;;;;;;3.70;3.40;;;25.30;60.80;;;;;;229563;1263;22293;-59
2023/09/17 09:31:24;;;;;;;5.50;3.40;;;25.40;60.40;;;;;;229571;1247;22996;-59
2023/09/17 09:36:28;;;;;;;5.70;4.20;;;25.40;61.20;;;;;;229535;1253;23011;-57
2023/09/17 09:41:34;;;;;;;6.50;4.10;;;25.60;60.40;;;;;;229512;1247;22374;-58
2023/09/17 09:46:37;;;;;;;6.70;4.10;;;25.60;60.00;;;;;;229604;1251;22292;-57
2023/09/17 09:51:40;;;;;;;5.10;3.90;;;25.60;59.90;;;;;;229598;1247;24091;-58
2023/09/17 09:56:42;;;;;;;5.80;3.70;;;25.60;59.60;;;;;;229561;1261;22269;-59
2023/09/17 10:01:45;;;;;;;3.70;3.40;;;25.60;59.80;;;;;;229434;1260;22597;-58
2023/09/17 10:06:48;;;;;;;6.10;3.40;;;25.60;59.40;;;;;;229449;1260;22284;-58
2023/09/17 10:11:53;;;;;;;3.50;3.30;;;25.60;59.40;;;;;;229542;1248;22979;-58
2023/09/17 10:16:57;;;;;;;4.20;3.40;;;25.70;59.10;;;;;;229499;1260;22737;-58
2023/09/17 10:22:07;;;;;;;3.50;3.30;;;25.80;59.00;;;;;;229678;1249;22271;-57
2023/09/17 10:27:13;;;;;;;4.30;3.80;;;25.90;59.20;;;;;;229613;1261;22313;-57
2023/09/17 10:32:18;;;;;;;5.10;3.20;;;26.00;59.10;;;;;;229629;1263;22782;-58
2023/09/17 10:37:21;;;;;;;3.20;3.00;;;26.10;58.80;;;;;;229563;1251;22340;-58
2023/09/17 10:42:25;;;;;;;4.80;3.20;;;26.10;58.50;;;;;;229657;1248;22253;-58
2023/09/17 10:47:30;;;;;;;3.60;3.10;;;26.30;58.40;;;;;;229539;1263;22279;-58
2023/09/17 10:52:35;;;;;;;3.40;3.10;;;26.30;58.30;;;;;;229582;1263;22248;-58
2023/09/17 10:57:40;;;;;;;2.90;2.70;;;26.20;58.60;;;;;;229695;1262;23175;-58
2023/09/17 11:02:57;;;;;;;3.70;3.20;;;26.40;58.10;;;;;;229630;1248;22329;-58
2023/09/17 11:08:04;;;;;;;3.80;3.50;;;26.40;58.40;;;;;;229616;1247;23674;-59
2023/09/17 11:13:13;;;;;;;3.00;2.80;;;26.50;57.40;;;;;;229748;1247;22325;-59
2023/09/17 11:18:17;;;;;;;3.80;3.30;;;26.60;57.60;;;;;;229667;1249;22258;-59
2023/09/17 11:23:45;;;;;;;3.50;3.20;;;26.60;57.20;;;;;;229620;1263;22279;-58
2023/09/17 11:28:58;;;;;;;5.70;3.10;;;26.70;56.80;;;;;;229574;1248;22263;-59
2023/09/17 11:34:04;;;;;;;3.20;3.00;;;26.60;57.40;;;;;;229631;1248;22279;-58
2023/09/17 11:39:08;;;;;;;5.60;3.10;;;26.60;57.30;;;;;;229674;1247;22980;-58
2023/09/17 11:44:16;;;;;;;2.90;2.70;;;26.80;56.50;;;;;;229614;1247;22236;-60
2023/09/17 11:49:19;;;;;;;3.20;3.00;;;26.80;56.50;;;;;;229645;1247;23286;-59
2023/09/17 11:54:25;;;;;;;3.20;3.00;;;26.90;56.30;;;;;;229664;1247;22299;-59
2023/09/17 11:59:37;;;;;;;3.50;3.30;;;26.90;56.50;;;;;;229630;1251;22231;-58
2023/09/17 12:04:42;;;;;;;3.20;3.00;;;27.10;56.30;;;;;;229654;1249;22329;-58
2023/09/17 12:10:00;;;;;;;3.00;2.70;;;27.10;56.20;;;;;;229608;1247;22330;-59
2023/09/17 12:15:05;;;;;;;3.60;3.30;;;27.00;56.60;;;;;;229390;1247;282058;-58
2023/09/17 12:20:20;;;;;;;3.50;3.00;;;27.00;56.20;;;;;;229668;1248;22240;-58
2023/09/17 12:25:26;;;;;;;2.90;2.70;;;27.10;56.20;;;;;;229664;1248;23340;-58
2023/09/17 12:30:29;;;;;;;2.80;2.60;;;27.00;56.20;;;;;;229611;1249;23005;-59
2023/09/17 12:35:35;;;;;;;3.50;3.00;;;27.00;56.20;;;;;;229601;1249;22357;-59
2023/09/17 12:40:41;;;;;;;3.10;2.90;;;27.10;56.30;;;;;;229612;1248;22306;-59
2023/09/17 12:45:44;;;;;;;2.80;2.60;;;27.10;56.20;;;;;;229727;1248;22271;-58
2023/09/17 12:50:47;;;;;;;3.90;2.60;;;27.20;56.10;;;;;;229667;1248;22327;-58
2023/09/17 12:55:50;;;;;;;3.10;2.90;;;27.00;56.30;;;;;;229657;1248;22265;-58
2023/09/17 13:00:54;;;;;;;3.00;2.80;;;27.30;55.70;;;;;;229687;1248;23191;-59
2023/09/17 13:05:57;;;;;;;4.70;3.00;;;27.20;55.60;;;;;;229646;1248;22236;-58
2023/09/17 13:11:01;;;;;;;2.40;2.30;;;27.20;55.60;;;;;;229678;1247;22264;-59
2023/09/17 13:16:05;;;;;;;3.20;3.00;;;27.10;55.80;;;;;;229617;1247;22265;-58
2023/09/17 13:21:12;;;;;;;3.10;2.80;;;27.10;55.90;;;;;;229576;1248;22294;-58
2023/09/17 13:26:16;;;;;;;3.00;2.80;;;27.20;55.80;;;;;;229601;1247;23974;-58
2023/09/17 13:31:20;;;;;;;2.40;2.30;;;27.20;55.80;;;;;;229630;1249;22375;-58
2023/09/17 13:36:25;;;;;;;2.50;2.30;;;27.30;54.10;;;;;;229726;1248;22282;-58
2023/09/17 13:41:29;;;;;;;2.80;2.60;;;27.10;54.20;;;;;;229596;1247;24036;-57
2023/09/17 13:46:32;;;;;;;2.90;2.60;;;27.10;54.60;;;;;;229580;1263;22231;-58
2023/09/17 13:51:37;;;;;;;3.90;2.70;;;27.10;54.50;;;;;;229620;1263;22281;-58
2023/09/17 13:56:40;;;;;;;4.80;3.00;;;27.10;54.80;;;;;;229599;1263;22449;-57
2023/09/17 14:01:45;;;;;;;6.40;2.90;;;27.10;54.60;;;;;;229654;1247;22267;-59
2023/09/17 14:06:54;;;;;;;3.00;2.80;;;27.10;54.40;;;;;;229592;1262;23207;-58
2023/09/17 14:11:59;;;;;;;2.90;2.70;;;27.10;54.50;;;;;;229611;1263;22279;-58
2023/09/17 14:17:04;;;;;;;2.80;2.60;;;27.20;53.80;;;;;;229622;1260;22282;-58
2023/09/17 14:22:09;;;;;;;2.80;2.60;;;27.20;54.10;;;;;;229628;1260;22280;-59
2023/09/17 14:27:13;;;;;;;3.10;2.90;;;27.20;54.10;;;;;;229616;1263;22254;-59
2023/09/17 14:32:19;;;;;;;3.50;3.00;;;27.20;54.00;;;;;;229604;1263;22257;-58
2023/09/17 14:37:25;;;;;;;3.50;2.80;;;27.20;53.90;;;;;;229653;1263;22260;-58
2023/09/17 14:42:29;;;;;;;2.80;2.60;;;27.30;54.20;;;;;;229626;1249;22283;-58
2023/09/17 14:47:33;;;;;;;2.50;2.30;;;27.30;53.60;;;;;;229570;1263;22250;-58
2023/09/17 14:52:37;;;;;;;2.90;2.40;;;27.10;54.10;;;;;;229644;1263;23206;-57
2023/09/17 14:57:41;;;;;;;2.60;2.40;;;27.10;54.50;;;;;;229532;1263;22382;-58
2023/09/17 15:02:45;;;;;;;2.60;2.40;;;27.10;54.50;;;;;;229597;1248;22394;-59
2023/09/17 15:07:49;;;;;;;2.70;2.50;;;27.10;54.20;;;;;;229374;1264;22307;-59
2023/09/17 15:12:53;;;;;;;2.80;2.60;;;27.10;54.20;;;;;;229630;1263;22345;-58
2023/09/17 15:17:58;;;;;;;3.40;2.70;;;27.00;54.10;;;;;;229597;1263;22259;-58
2023/09/17 15:23:02;;;;;;;2.60;2.40;;;27.00;54.10;;;;;;229377;1252;22450;-58
2023/09/17 15:28:11;;;;;;;3.30;2.80;;;27.00;54.30;;;;;;229655;1263;23918;-58
2023/09/17 15:33:17;;;;;;;3.40;3.00;;;27.00;54.20;;;;;;229589;1249;22368;-58
2023/09/17 15:38:21;;;;;;;2.80;2.60;;;26.70;55.00;;;;;;229633;1256;22342;-58
2023/09/17 15:43:26;;;;;;;3.00;2.80;;;26.70;55.20;;;;;;229604;1248;22411;-58
2023/09/17 15:48:42;;;;;;;2.90;2.70;;;26.60;55.30;;;;;;229612;1263;22703;-60
2023/09/17 15:53:46;;;;;;;3.20;2.70;;;26.60;55.20;;;;;;229584;1258;22949;-59
2023/09/17 15:58:57;;;;;;;2.60;2.40;;;26.60;55.10;;;;;;229618;1249;22285;-59
2023/09/17 16:04:02;;;;;;;3.70;2.50;;;26.60;55.30;;;;;;229348;1252;22371;-58
2023/09/17 16:09:07;;;;;;;3.00;2.80;;;26.80;54.70;;;;;;229546;1263;22348;-58
2023/09/17 16:14:10;;;;;;;3.00;2.80;;;26.70;55.10;;;;;;229574;1263;22403;-59
2023/09/17 16:19:13;;;;;;;3.50;2.80;;;26.70;55.10;;;;;;229578;1263;23132;-59
2023/09/17 16:24:19;;;;;;;4.20;2.70;;;26.70;56.00;;;;;;229609;1252;22351;-60
2023/09/17 16:29:23;;;;;;;3.10;2.80;;;26.60;55.90;;;;;;229514;1252;22249;-58
2023/09/17 16:34:27;;;;;;;4.20;2.90;;;26.50;57.00;;;;;;229550;1264;22295;-59
2023/09/17 16:39:32;;;;;;;3.30;3.00;;;26.60;56.80;;;;;;229565;1263;22840;-59
2023/09/17 16:44:35;;;;;;;3.60;3.20;;;26.50;57.50;;;;;;229608;1263;22271;-59
2023/09/17 16:49:41;;;;;;;3.10;2.90;;;26.40;57.70;;;;;;229582;1251;22322;-58
2023/09/17 16:54:46;;;;;;;3.30;3.00;;;26.30;58.10;;;;;;229568;1263;22265;-60
2023/09/17 16:59:50;;;;;;;6.00;2.90;;;26.30;58.60;;;;;;229549;1255;23947;-59
2023/09/17 17:04:56;;;;;;;4.30;3.50;;;26.20;58.30;;;;;;229531;1260;22326;-58
2023/09/17 17:10:00;;;;;;;3.20;3.00;;;26.20;58.20;;;;;;229537;1256;22290;-58
2023/09/17 17:15:07;;;;;;;3.50;3.20;;;26.30;58.20;;;;;;229564;1263;22272;-58
2023/09/17 17:20:14;;;;;;;3.70;3.10;;;26.20;58.10;;;;;;229524;1248;22714;-59
2023/09/17 17:25:18;;;;;;;4.20;3.20;;;26.20;58.00;;;;;;229584;1249;22228;-59
2023/09/17 17:30:26;;;;;;;5.70;4.50;;;26.10;58.60;;;;;;229533;1252;23559;-58
2023/09/17 17:35:31;;;;;;;3.80;3.50;;;26.10;58.20;;;;;;229589;1249;22315;-58
2023/09/17 17:40:35;;;;;;;4.00;3.60;;;26.10;58.30;;;;;;229257;1255;22266;-59
2023/09/17 17:45:40;;;;;;;4.10;3.80;;;26.10;58.30;;;;;;229521;1263;24005;-59
2023/09/17 17:50:45;;;;;;;4.70;4.30;;;26.00;58.40;;;;;;229528;1250;23232;-59
2023/09/17 17:56:12;;;;;;;4.60;3.30;;;26.00;58.80;;;;;;229569;1263;22252;-58
2023/09/17 18:01:37;;;;;;;4.30;4.00;;;26.00;59.00;;;;;;229510;1257;22318;-59
2023/09/17 18:07:01;;;;;;;7.20;4.00;;;26.00;59.20;;;;;;229401;1251;22241;-59
2023/09/17 18:12:07;;;;;;;5.20;4.00;;;25.90;59.90;;;;;;229429;1263;22234;-57
2023/09/17 18:17:13;;;;;;;4.80;4.10;;;25.90;59.70;;;;;;229345;1259;22299;-57
2023/09/17 18:22:17;;;;;;;6.80;4.10;;;25.90;59.90;;;;;;229434;1252;22419;-57
2023/09/17 18:27:22;;;;;;;4.40;4.00;;;26.00;59.90;;;;;;229521;1252;23116;-56
2023/09/17 18:32:27;;;;;;;20.30;5.10;;;25.80;60.70;;;;;;229520;1248;22399;-53
2023/09/17 18:37:34;;;;;;;5.60;4.30;;;25.40;61.80;;;;;;229470;1252;23111;-55
2023/09/17 18:42:42;;;;;;;4.90;4.20;;;25.30;62.20;;;;;;229452;1263;22297;-51
2023/09/17 18:47:50;;;;;;;6.70;4.70;;;25.30;62.50;;;;;;229476;1251;22365;-55
2023/09/17 18:52:56;;;;;;;5.50;4.90;;;25.20;62.50;;;;;;229469;1263;22327;-52
2023/09/17 18:58:00;;;;;;;12.40;5.30;;;25.10;62.50;;;;;;229468;1252;22414;-54
2023/09/17 19:03:05;;;;;;;8.20;5.70;;;25.20;63.60;;;;;;229530;1263;23031;-53
2023/09/17 19:08:11;;;;;;;10.90;5.40;;;25.10;63.40;;;;;;229364;1263;22246;-52
2023/09/17 19:13:18;;;;;;;11.70;5.50;;;25.00;63.10;;;;;;229466;1263;22413;-53
2023/09/17 19:18:25;;;;;;;8.20;5.40;;;25.00;63.20;;;;;;229492;1248;22351;-54
2023/09/17 19:23:32;;;;;;;5.70;5.20;;;24.80;63.40;;;;;;229548;1263;22315;-55
2023/09/17 19:28:37;;;;;;;6.90;6.00;;;24.70;63.70;;;;;;229449;1252;22280;-51
2023/09/17 19:33:44;;;;;;;9.80;5.70;;;24.70;63.90;;;;;;229256;1263;22314;-51
2023/09/17 19:38:53;;;;;;;10.90;6.00;;;24.60;64.40;;;;;;229506;1263;23071;-53
2023/09/17 19:43:58;;;;;;;6.50;5.80;;;24.60;64.60;;;;;;229526;1262;23160;-53
2023/09/17 19:49:07;;;;;;;7.40;6.10;;;24.60;64.70;;;;;;229532;1252;22354;-51
2023/09/17 19:54:13;;;;;;;7.70;5.70;;;24.70;64.70;;;;;;229500;1263;22338;-55
2023/09/17 19:59:18;;;;;;;8.70;5.80;;;24.60;64.40;;;;;;229508;1252;22620;-51
2023/09/17 20:04:22;;;;;;;6.20;5.60;;;24.50;64.90;;;;;;229475;1263;22244;-53
2023/09/17 20:09:27;;;;;;;6.40;5.80;;;24.40;64.70;;;;;;229508;1252;22256;-54
2023/09/17 20:14:31;;;;;;;10.00;6.80;;;24.30;65.40;;;;;;229523;1263;22396;-53
2023/09/17 20:19:36;;;;;;;16.10;13.30;;;24.30;64.80;;;;;;229583;1263;23020;-52
2023/09/17 20:24:40;;;;;;;11.90;10.60;;;24.30;65.00;;;;;;229329;1263;22323;-54
2023/09/17 20:29:43;;;;;;;15.70;10.60;;;24.50;63.80;;;;;;229619;1263;22322;-54
2023/09/17 20:34:46;;;;;;;11.20;9.90;;;24.80;62.90;;;;;;229575;1261;22287;-55
2023/09/17 20:39:50;;;;;;;11.70;9.40;;;25.00;62.80;;;;;;229467;1251;22243;-54
2023/09/17 20:44:53;;;;;;;11.10;8.80;;;25.10;62.30;;;;;;229531;1263;22405;-54
2023/09/17 20:49:56;;;;;;;9.40;8.40;;;25.30;62.30;;;;;;229558;1263;23064;-56
2023/09/17 20:54:59;;;;;;;11.30;8.10;;;25.30;62.00;;;;;;229491;1247;22239;-55
2023/09/17 21:00:07;;;;;;;8.90;7.90;;;25.20;62.70;;;;;;229405;1263;22930;-55
2023/09/17 21:05:12;;;;;;;7.90;7.10;;;25.20;62.60;;;;;;229413;1252;22350;-55
2023/09/17 21:10:14;;;;;;;9.50;7.80;;;25.20;62.50;;;;;;229490;1252;22720;-56
2023/09/17 21:15:17;;;;;;;8.20;7.50;;;25.30;61.70;;;;;;229535;1250;22293;-56
2023/09/17 21:20:20;;;;;;;9.70;7.70;;;25.30;61.70;;;;;;229563;1248;22638;-57
2023/09/17 21:25:23;;;;;;;8.20;7.40;;;25.30;62.40;;;;;;229577;1252;23774;-57
2023/09/17 21:30:26;;;;;;;10.00;7.00;;;25.30;62.60;;;;;;229512;1256;23156;-57
2023/09/17 21:35:29;;;;;;;8.40;6.90;;;25.30;62.80;;;;;;229409;1256;22280;-57
2023/09/17 21:40:32;;;;;;;12.50;7.10;;;25.30;62.90;;;;;;229521;1251;22389;-58
2023/09/17 21:45:35;;;;;;;8.30;7.60;;;25.30;62.80;;;;;;229494;1250;22363;-57
2023/09/17 21:50:39;;;;;;;8.50;6.70;;;25.30;62.60;;;;;;229523;1252;22421;-57
2023/09/17 21:55:41;;;;;;;7.50;6.80;;;25.30;62.70;;;;;;229489;1256;22262;-58
2023/09/17 22:00:47;;;;;;;6.50;5.80;;;25.30;62.60;;;;;;229547;1254;22243;-56
2023/09/17 22:05:51;;;;;;;6.90;6.30;;;25.30;62.90;;;;;;229555;1252;22229;-57
2023/09/17 22:10:55;;;;;;;6.20;5.70;;;25.30;62.60;;;;;;229518;1248;22368;-56
2023/09/17 22:15:58;;;;;;;7.50;6.90;;;25.30;62.50;;;;;;229446;1248;22272;-56
2023/09/17 22:21:09;;;;;;;6.80;6.10;;;25.40;62.40;;;;;;229564;1255;22316;-57
2023/09/17 22:26:12;;;;;;;6.50;5.70;;;25.40;62.80;;;;;;229504;1254;23118;-55
2023/09/17 22:31:15;;;;;;;6.50;6.00;;;25.40;62.30;;;;;;229575;1251;22392;-57
2023/09/17 22:36:18;;;;;;;6.50;6.00;;;25.40;62.30;;;;;;229538;1254;22373;-57
2023/09/17 22:41:23;;;;;;;6.30;5.10;;;25.40;62.30;;;;;;229550;1254;22302;-57
2023/09/17 22:46:27;;;;;;;7.50;5.90;;;25.40;62.00;;;;;;229544;1250;22323;-56
2023/09/17 22:51:30;;;;;;;8.30;6.20;;;25.40;62.00;;;;;;229494;1250;22398;-57
2023/09/17 22:56:33;;;;;;;7.10;5.70;;;25.40;61.90;;;;;;229527;1256;23256;-57
2023/09/17 23:01:38;;;;;;;6.10;5.60;;;25.40;61.90;;;;;;229494;1253;22593;-57
2023/09/17 23:06:41;;;;;;;5.80;5.30;;;25.40;62.00;;;;;;229510;1253;22262;-56
2023/09/17 23:11:43;;;;;;;6.40;5.60;;;25.30;62.20;;;;;;229561;1254;22250;-56
2023/09/17 23:16:46;;;;;;;5.80;5.40;;;25.30;61.90;;;;;;229584;1249;23722;-57
2023/09/17 23:21:52;;;;;;;6.50;5.70;;;25.20;61.80;;;;;;229531;1255;22261;-57
2023/09/17 23:26:55;;;;;;;5.90;5.30;;;25.30;61.90;;;;;;229534;1254;22413;-57
2023/09/17 23:31:58;;;;;;;5.70;5.20;;;25.30;62.20;;;;;;229376;1253;22325;-56
2023/09/17 23:37:01;;;;;;;6.00;5.60;;;25.30;61.90;;;;;;229554;1254;22271;-56
2023/09/17 23:42:04;;;;;;;5.40;5.00;;;25.30;61.90;;;;;;229541;1252;22244;-57
2023/09/17 23:47:07;;;;;;;6.80;6.30;;;25.30;62.10;;;;;;229419;1254;22326;-57
2023/09/17 23:52:09;;;;;;;5.90;5.50;;;25.30;62.20;;;;;;229643;1254;22241;-57
2023/09/17 23:57:13;;;;;;;6.00;5.50;;;25.30;62.20;;;;;;229598;1248;22296;-57
